createdAt,value
2023-10-10T00:01:43.805Z,4.05
2023-10-10T00:04:45.454Z,4.30
2023-10-10T00:07:47.242Z,2.65
2023-10-10T00:10:49.087Z,4.53
2023-10-10T00:13:53.162Z,1.92
2023-10-10T00:16:54.769Z,3.53
2023-10-10T00:19:56.363Z,3.08
2023-10-10T00:22:57.903Z,2.27
2023-10-10T00:25:59.588Z,4.80
2023-10-10T00:29:01.168Z,6.65
2023-10-10T00:32:02.794Z,3.38
2023-10-10T00:35:04.349Z,2.97
2023-10-10T00:38:05.918Z,3.30
2023-10-10T00:41:07.523Z,2.35
2023-10-10T00:44:09.083Z,3.60
2023-10-10T00:47:10.755Z,4.55
2023-10-10T00:50:12.334Z,3.57
2023-10-10T00:53:13.925Z,3.33
2023-10-10T00:56:15.751Z,2.97
2023-10-10T00:59:17.951Z,3.58
2023-10-10T01:02:19.853Z,5.63
2023-10-10T01:05:21.488Z,3.67
2023-10-10T01:08:23.086Z,2.97
2023-10-10T01:11:24.704Z,4.43
2023-10-10T01:14:26.388Z,6.63
2023-10-10T01:17:28.076Z,2.00
2023-10-10T01:20:29.860Z,4.50
2023-10-10T01:23:31.422Z,2.60
2023-10-10T01:26:33.041Z,1.80
2023-10-10T01:29:34.712Z,3.00
2023-10-10T01:32:36.368Z,4.28
2023-10-10T01:35:38.062Z,1.83
2023-10-10T01:38:39.645Z,2.97
2023-10-10T01:41:41.406Z,2.70
2023-10-10T01:44:43.066Z,3.17
2023-10-10T01:47:44.908Z,1.60
2023-10-10T01:50:46.518Z,2.05
2023-10-10T01:53:48.053Z,1.67
2023-10-10T01:56:49.556Z,1.55
2023-10-10T01:59:51.193Z,3.10
2023-10-10T02:02:55.372Z,2.05
2023-10-10T02:05:56.985Z,1.67
2023-10-10T02:08:58.523Z,1.70
2023-10-10T02:12:00.055Z,1.23
2023-10-10T02:15:01.611Z,3.00
2023-10-10T02:18:03.317Z,2.60
2023-10-10T02:21:04.892Z,2.80
2023-10-10T02:24:06.441Z,1.23
2023-10-10T02:27:07.955Z,2.22
2023-10-10T02:30:09.504Z,1.92
2023-10-10T02:33:11.042Z,3.88
2023-10-10T02:36:12.643Z,2.92
2023-10-10T02:39:14.333Z,2.33
2023-10-10T02:42:15.983Z,3.08
2023-10-10T02:45:17.520Z,1.42
2023-10-10T02:48:19.052Z,1.70
2023-10-10T02:51:20.615Z,4.97
2023-10-10T02:54:22.129Z,1.90
2023-10-10T02:57:23.672Z,1.88
2023-10-10T03:00:27.524Z,2.63
2023-10-10T03:03:29.362Z,2.00
2023-10-10T03:06:31.052Z,2.60
2023-10-10T03:09:32.596Z,2.88
2023-10-10T03:12:34.106Z,1.55
2023-10-10T03:15:35.638Z,1.70
2023-10-10T03:18:37.200Z,1.27
2023-10-10T03:21:38.705Z,0.95
2023-10-10T03:24:40.261Z,1.98
2023-10-10T03:27:41.763Z,1.83
2023-10-10T03:30:43.297Z,3.03
2023-10-10T03:33:44.816Z,1.30
2023-10-10T03:36:46.401Z,1.65
2023-10-10T03:39:47.946Z,1.85
2023-10-10T03:42:51.582Z,1.30
2023-10-10T03:45:53.136Z,1.37
2023-10-10T03:48:54.676Z,1.40
2023-10-10T03:51:56.288Z,2.10
2023-10-10T03:54:57.915Z,2.05
2023-10-10T03:57:59.506Z,0.80
2023-10-10T04:01:01.020Z,2.22
2023-10-10T04:04:02.677Z,0.77
2023-10-10T04:07:04.272Z,2.08
2023-10-10T04:10:05.796Z,0.88
2023-10-10T04:13:07.336Z,2.38
2023-10-10T04:16:08.921Z,1.85
2023-10-10T04:19:10.504Z,1.52
2023-10-10T04:22:12.012Z,1.95
2023-10-10T04:25:13.548Z,1.10
2023-10-10T04:28:15.091Z,0.77
2023-10-10T04:31:16.697Z,2.25
2023-10-10T04:34:20.488Z,1.10
2023-10-10T04:37:22.016Z,1.37
2023-10-10T04:40:23.616Z,1.08
2023-10-10T04:43:25.159Z,1.23
2023-10-10T04:46:26.711Z,1.43
2023-10-10T04:49:28.278Z,0.65
2023-10-10T04:52:29.793Z,1.58
2023-10-10T04:55:31.332Z,1.13
2023-10-10T04:58:32.837Z,3.03
2023-10-10T05:01:34.443Z,2.67
2023-10-10T05:04:36.329Z,1.83
2023-10-10T05:07:37.874Z,2.60
2023-10-10T05:10:39.475Z,1.08
2023-10-10T05:13:40.982Z,0.80
2023-10-10T05:16:42.525Z,2.40
2023-10-10T05:19:44.091Z,1.30
2023-10-10T05:22:45.635Z,0.75
2023-10-10T05:25:47.141Z,1.73
2023-10-10T05:28:48.751Z,1.30
2023-10-10T05:31:50.305Z,0.90
2023-10-10T05:34:51.849Z,1.65
2023-10-10T05:37:53.394Z,1.20
2023-10-10T05:40:55.093Z,5.35
2023-10-10T05:43:56.802Z,1.27
2023-10-10T05:46:58.353Z,3.70
2023-10-10T05:49:59.871Z,1.75
2023-10-10T05:53:01.400Z,3.40
2023-10-10T05:56:03.010Z,1.75
2023-10-10T05:59:05.100Z,2.97
2023-10-10T06:02:06.698Z,3.87
2023-10-10T06:05:08.321Z,4.07
2023-10-10T06:08:09.889Z,1.67
2023-10-10T06:11:11.471Z,3.35
2023-10-10T06:14:13.091Z,3.90
2023-10-10T06:17:15.067Z,4.97
2023-10-10T06:20:16.699Z,3.17
2023-10-10T06:23:18.301Z,2.20
2023-10-10T06:26:19.885Z,1.80
2023-10-10T06:29:21.467Z,5.60
2023-10-10T06:32:23.098Z,5.63
2023-10-10T06:35:24.699Z,5.80
2023-10-10T06:38:26.316Z,2.17
2023-10-10T06:41:27.886Z,2.03
2023-10-10T06:44:29.456Z,3.15
2023-10-10T06:47:31.044Z,8.57
2023-10-10T06:50:32.698Z,28.00
2023-10-10T06:53:34.293Z,66.82
2023-10-10T06:56:35.908Z,42.90
2023-10-10T06:59:37.515Z,34.73
2023-10-10T07:02:39.128Z,53.50
2023-10-10T07:05:41.099Z,28.15
2023-10-10T07:08:42.708Z,26.83
2023-10-10T07:11:44.294Z,19.33
2023-10-10T07:14:45.916Z,25.43
2023-10-10T07:17:47.625Z,22.48
2023-10-10T07:20:49.555Z,14.02
2023-10-10T07:23:51.311Z,8.00
2023-10-10T07:26:52.948Z,12.13
2023-10-10T07:29:54.475Z,9.43
2023-10-10T07:32:56.225Z,57.03
2023-10-10T07:35:57.872Z,41.72
2023-10-10T07:38:59.453Z,35.00
2023-10-10T07:42:01.025Z,43.13
2023-10-10T07:45:02.566Z,20.77
2023-10-10T07:48:04.272Z,29.38
2023-10-10T07:51:05.892Z,8.93
2023-10-10T07:54:07.421Z,21.02
2023-10-10T07:57:08.978Z,24.17
2023-10-10T08:00:10.669Z,14.07
2023-10-10T08:03:12.347Z,14.15
2023-10-10T08:06:13.947Z,8.87
2023-10-10T08:09:15.459Z,19.83
2023-10-10T08:12:17.041Z,28.00
2023-10-10T08:15:18.552Z,24.47
2023-10-10T08:18:20.236Z,18.88
2023-10-10T08:21:21.842Z,34.23
2023-10-10T08:24:23.412Z,13.20
2023-10-10T08:27:24.963Z,13.97
2023-10-10T08:30:26.493Z,42.75
2023-10-10T08:33:28.100Z,10.68
2023-10-10T08:36:29.777Z,13.30
2023-10-10T08:39:31.349Z,13.80
2023-10-10T08:42:35.657Z,20.93
2023-10-10T08:45:37.161Z,21.02
2023-10-10T08:48:38.774Z,16.45
2023-10-10T08:51:40.458Z,17.02
2023-10-10T08:54:44.687Z,12.23
2023-10-10T08:57:46.364Z,15.57
2023-10-10T09:14:48.607Z,9.80
2023-10-10T09:17:50.391Z,10.52
2023-10-10T09:20:52.148Z,8.38
2023-10-10T09:23:53.841Z,11.15
2023-10-10T09:26:55.411Z,8.10
2023-10-10T09:29:56.937Z,8.10
2023-10-10T09:32:58.639Z,14.95
2023-10-10T09:36:02.585Z,10.77
2023-10-10T09:39:04.144Z,10.63
2023-10-10T09:42:05.685Z,27.15
2023-10-10T09:45:07.328Z,13.48
2023-10-10T09:48:09.043Z,19.50
2023-10-10T09:51:10.659Z,26.38
2023-10-10T09:54:14.628Z,14.60
2023-10-10T09:57:19.022Z,28.20
2023-10-10T10:00:27.592Z,33.15
2023-10-10T10:03:29.991Z,36.28
2023-10-10T10:06:31.682Z,30.77
2023-10-10T10:09:33.254Z,24.90
2023-10-10T10:12:34.773Z,29.50
2023-10-10T10:15:36.312Z,22.50
2023-10-10T10:18:37.884Z,17.05
2023-10-10T10:21:39.453Z,17.02
2023-10-10T10:24:40.958Z,21.55
2023-10-10T10:27:42.486Z,15.20
2023-10-10T10:30:44.059Z,19.27
2023-10-10T10:33:45.621Z,22.93
2023-10-10T10:36:50.166Z,17.17
2023-10-10T10:39:53.934Z,14.73
2023-10-10T10:42:58.190Z,17.63
2023-10-10T10:46:02.439Z,16.45
2023-10-10T10:49:04.045Z,11.63
2023-10-10T10:52:05.611Z,11.07
2023-10-10T10:55:07.121Z,11.30
2023-10-10T10:58:08.671Z,13.10
2023-10-10T11:01:10.233Z,11.80
2023-10-10T11:04:11.852Z,10.15
2023-10-10T11:07:13.404Z,9.85
2023-10-10T11:10:14.927Z,12.40
2023-10-10T11:13:16.601Z,10.90
2023-10-10T11:16:18.177Z,9.50
2023-10-10T11:19:19.749Z,13.70
2023-10-10T11:22:21.461Z,11.30
2023-10-10T11:25:23.068Z,12.77
2023-10-10T11:28:24.802Z,21.57
2023-10-10T11:31:26.529Z,16.92
2023-10-10T11:34:30.273Z,27.92
2023-10-10T11:37:31.788Z,60.80
2023-10-10T11:40:33.364Z,45.25
2023-10-10T11:43:35.928Z,59.20
2023-10-10T11:46:37.701Z,42.10
2023-10-10T11:49:39.279Z,50.10
2023-10-10T11:52:40.805Z,36.33
2023-10-10T11:55:42.359Z,40.35
2023-10-10T11:58:43.927Z,29.08
2023-10-10T12:01:45.481Z,29.67
2023-10-10T12:04:47.040Z,31.27
2023-10-10T12:07:48.546Z,25.25
2023-10-10T12:10:50.071Z,30.27
2023-10-10T12:13:52.062Z,26.77
2023-10-10T12:16:53.835Z,19.58
2023-10-10T12:19:55.412Z,21.50
2023-10-10T12:22:56.952Z,24.80
2023-10-10T12:25:58.506Z,25.52
2023-10-10T12:29:00.246Z,26.13
2023-10-10T12:32:01.825Z,26.45
2023-10-10T12:35:03.360Z,28.50
2023-10-10T12:38:04.917Z,31.05
2023-10-10T12:41:06.452Z,27.88
2023-10-10T12:44:08.019Z,26.25
2023-10-10T12:47:09.532Z,19.35
2023-10-10T12:50:11.089Z,22.15
2023-10-10T12:53:12.662Z,20.88
2023-10-10T12:56:14.203Z,15.10
2023-10-10T13:02:20.731Z,16.88
2023-10-10T13:05:22.384Z,16.05
2023-10-10T13:08:23.990Z,25.35
2023-10-10T13:11:25.753Z,12.95
2023-10-10T13:14:27.361Z,15.18
2023-10-10T13:17:31.770Z,17.98
2023-10-10T13:20:33.671Z,17.08
2023-10-10T13:23:37.437Z,12.15
2023-10-10T13:26:39.075Z,20.38
2023-10-10T13:29:40.692Z,13.30
2023-10-10T13:32:42.332Z,9.43
2023-10-10T13:35:48.469Z,11.88
2023-10-10T13:38:50.137Z,16.45
2023-10-10T13:41:51.761Z,12.60
2023-10-10T13:44:53.325Z,14.02
2023-10-10T13:47:56.687Z,8.43
2023-10-10T13:51:02.870Z,15.77
2023-10-10T13:54:04.446Z,12.35
2023-10-10T13:57:06.031Z,12.50
2023-10-10T14:00:07.633Z,12.70
2023-10-10T14:03:09.370Z,10.32
2023-10-10T14:06:11.010Z,15.57
2023-10-10T14:09:12.553Z,8.27
2023-10-10T14:12:14.139Z,13.93
2023-10-10T14:15:15.692Z,9.70
2023-10-10T14:18:17.365Z,12.48
2023-10-10T14:21:18.949Z,9.98
2023-10-10T14:24:20.505Z,8.18
2023-10-10T14:27:22.037Z,9.13
2023-10-10T14:30:23.558Z,6.82
2023-10-10T14:33:25.169Z,10.15
2023-10-10T14:36:26.805Z,11.68
2023-10-10T14:39:28.345Z,11.45
2023-10-10T14:42:29.890Z,7.03
2023-10-10T14:45:31.399Z,7.85
2023-10-10T14:48:33.059Z,7.60
2023-10-10T14:51:34.650Z,9.13
2023-10-10T14:54:36.176Z,12.43
2023-10-10T14:57:37.824Z,7.53
2023-10-10T15:00:40.640Z,9.43
2023-10-10T15:03:44.540Z,9.90
2023-10-10T15:06:46.333Z,7.90
2023-10-10T15:09:47.864Z,9.77
2023-10-10T15:12:49.517Z,6.95
2023-10-10T15:15:51.055Z,7.90
2023-10-10T15:18:52.705Z,9.18
2023-10-10T15:21:54.293Z,8.40
2023-10-10T15:24:55.867Z,13.15
2023-10-10T15:27:57.423Z,6.97
2023-10-10T15:30:59.090Z,9.15
2023-10-10T15:34:00.635Z,5.28
2023-10-10T15:37:02.277Z,7.45
2023-10-10T15:40:03.797Z,10.23
2023-10-10T15:43:08.804Z,7.38
2023-10-10T15:46:12.498Z,10.15
2023-10-10T15:49:29.678Z,13.80
2023-10-10T15:52:35.093Z,12.45
2023-10-10T15:55:36.694Z,7.25
2023-10-10T15:58:41.196Z,6.53
2023-10-10T16:01:43.044Z,10.98
2023-10-10T16:04:44.603Z,9.27
2023-10-10T16:07:50.448Z,8.35
2023-10-10T16:11:00.956Z,8.00
2023-10-10T16:14:02.500Z,9.35
2023-10-10T16:17:04.187Z,9.52
2023-10-10T16:20:05.932Z,8.23
2023-10-10T16:23:07.462Z,12.02
2023-10-10T16:26:09.021Z,8.75
2023-10-10T16:29:10.566Z,9.65
2023-10-10T16:32:12.132Z,9.70
2023-10-10T16:35:13.663Z,7.95
2023-10-10T16:38:15.197Z,8.85
2023-10-10T16:41:16.711Z,11.88
2023-10-10T16:44:18.289Z,8.93
2023-10-10T16:47:19.821Z,10.48
2023-10-10T16:50:21.378Z,10.27
2023-10-10T16:53:22.940Z,9.55
2023-10-10T16:56:24.495Z,7.93
2023-10-10T16:59:26.147Z,12.82
2023-10-10T17:02:27.773Z,15.70
2023-10-10T17:05:29.386Z,7.45
2023-10-10T17:08:31.012Z,14.05
2023-10-10T17:11:32.595Z,13.15
2023-10-10T17:14:34.435Z,11.82
2023-10-10T17:17:36.048Z,11.10
2023-10-10T17:20:37.675Z,10.73
2023-10-10T17:23:39.270Z,12.10
2023-10-10T17:26:40.894Z,9.77
2023-10-10T17:29:46.035Z,10.60
2023-10-10T17:32:47.674Z,11.02
2023-10-10T17:35:49.356Z,10.77
2023-10-10T17:38:50.952Z,8.35
2023-10-10T17:41:52.528Z,8.13
2023-10-10T17:44:54.185Z,9.38
2023-10-10T17:47:55.833Z,10.48
2023-10-10T17:50:57.443Z,13.65
2023-10-10T17:53:59.047Z,13.43
2023-10-10T17:57:00.780Z,17.27
2023-10-10T18:00:02.356Z,17.95
2023-10-10T18:03:04.178Z,14.63
2023-10-10T18:06:05.853Z,20.00
2023-10-10T18:09:07.465Z,15.80
2023-10-10T18:12:09.122Z,20.45
2023-10-10T18:15:10.737Z,25.20
2023-10-10T18:18:12.360Z,19.45
2023-10-10T18:21:13.979Z,23.40
2023-10-10T18:24:15.494Z,22.33
2023-10-10T18:27:17.073Z,20.73
2023-10-10T18:30:18.663Z,23.63
2023-10-10T18:33:20.346Z,17.23
2023-10-10T18:36:21.947Z,23.00
2023-10-10T18:39:23.505Z,20.65
2023-10-10T18:42:25.038Z,24.02
2023-10-10T18:45:26.567Z,21.50
2023-10-10T18:48:28.242Z,26.40
2023-10-10T18:51:29.821Z,18.17
2023-10-10T18:54:31.359Z,22.80
2023-10-10T18:57:33.050Z,20.65
2023-10-10T19:00:34.595Z,23.00
2023-10-10T19:03:36.263Z,25.88
2023-10-10T19:06:37.959Z,22.00
2023-10-10T19:09:39.517Z,26.58
2023-10-10T19:12:41.088Z,21.35
2023-10-10T19:15:42.614Z,24.65
2023-10-10T19:18:44.216Z,21.65
2023-10-10T19:21:45.804Z,31.90
2023-10-10T19:24:47.357Z,44.90
2023-10-10T19:27:48.887Z,37.67
2023-10-10T19:30:50.459Z,34.22
2023-10-10T19:33:52.201Z,39.13
2023-10-10T19:36:53.954Z,35.03
2023-10-10T19:39:55.462Z,39.88
2023-10-10T19:42:56.999Z,43.65
2023-10-10T19:45:58.524Z,36.20
2023-10-10T19:49:00.312Z,37.47
2023-10-10T19:52:01.861Z,37.97
2023-10-10T19:55:17.056Z,36.58
2023-10-10T19:58:23.258Z,42.03
2023-10-10T20:01:24.879Z,40.45
2023-10-10T20:04:26.802Z,39.50
2023-10-10T20:07:28.423Z,38.63
2023-10-10T20:10:29.982Z,40.20
2023-10-10T20:13:31.538Z,42.67
2023-10-10T20:16:33.115Z,36.72
2023-10-10T20:19:34.711Z,41.15
2023-10-10T20:22:36.241Z,41.88
2023-10-10T20:25:37.843Z,38.60
2023-10-10T20:28:39.382Z,38.25
2023-10-10T20:31:40.951Z,29.50
2023-10-10T20:34:42.481Z,35.97
2023-10-10T20:37:44.116Z,39.28
2023-10-10T20:40:45.651Z,33.88
2023-10-10T20:43:47.180Z,36.53
2023-10-10T20:46:48.860Z,30.80
2023-10-10T20:49:50.438Z,28.88
2023-10-10T20:52:51.974Z,29.08
2023-10-10T20:55:53.622Z,38.67
2023-10-10T20:58:55.210Z,26.65
2023-10-10T21:01:56.753Z,27.20
2023-10-10T21:04:58.294Z,33.08
2023-10-10T21:07:59.839Z,30.67
2023-10-10T21:11:01.506Z,31.08
2023-10-10T21:14:03.044Z,21.45
2023-10-10T21:17:04.680Z,23.20
2023-10-10T21:20:06.225Z,24.40
2023-10-10T21:23:07.778Z,27.25
2023-10-10T21:26:09.359Z,22.25
2023-10-10T21:29:10.922Z,25.50
2023-10-10T21:32:12.463Z,23.35
2023-10-10T21:35:14.004Z,23.27
2023-10-10T21:38:15.552Z,22.00
2023-10-10T21:41:17.093Z,18.60
2023-10-10T21:44:18.634Z,22.27
2023-10-10T21:47:20.161Z,24.25
2023-10-10T21:50:21.701Z,21.20
2023-10-10T21:53:23.254Z,19.55
2023-10-10T21:56:24.784Z,21.63
2023-10-10T21:59:26.320Z,20.25
2023-10-10T22:02:27.898Z,20.40
2023-10-10T22:05:29.466Z,17.52
2023-10-10T22:08:31.054Z,21.83
2023-10-10T22:11:32.668Z,15.30
2023-10-10T22:14:34.238Z,18.02
2023-10-10T22:17:35.894Z,15.93
2023-10-10T22:20:37.654Z,18.02
2023-10-10T22:23:39.334Z,14.05
2023-10-10T22:26:40.923Z,14.32
2023-10-10T22:29:42.489Z,18.27
2023-10-10T22:32:44.221Z,17.30
2023-10-10T22:35:45.810Z,14.82
2023-10-10T22:38:47.563Z,18.02
2023-10-10T22:41:49.163Z,18.23
2023-10-10T22:44:50.754Z,17.23
2023-10-10T22:47:52.440Z,14.07
2023-10-10T22:50:54.319Z,16.23
2023-10-10T22:53:56.221Z,16.95
2023-10-10T22:56:57.830Z,12.85
2023-10-10T22:59:59.409Z,11.68
2023-10-10T23:03:01.084Z,15.88
2023-10-10T23:06:02.654Z,13.85
2023-10-10T23:09:04.334Z,13.07
2023-10-10T23:12:05.961Z,12.10
2023-10-10T23:15:07.642Z,9.45
2023-10-10T23:18:09.285Z,11.90
2023-10-10T23:21:10.912Z,13.77
2023-10-10T23:24:12.514Z,15.23
2023-10-10T23:27:14.066Z,15.57
2023-10-10T23:30:15.747Z,13.30
2023-10-10T23:33:17.622Z,14.82
2023-10-10T23:36:19.383Z,9.90
2023-10-10T23:39:20.958Z,10.75
2023-10-10T23:42:22.482Z,10.57
2023-10-10T23:45:24.233Z,9.75
2023-10-10T23:48:26.032Z,12.63
2023-10-10T23:51:27.656Z,11.15
2023-10-10T23:54:29.238Z,10.93
2023-10-10T23:57:30.790Z,12.50
